Time;durP1;ratioP1;P1;durP2;ratioP2;P2;SDS_P1;SDS_P2;PMS_P1;PMS_P2;Temp;Humidity;BMP_temperature;BMP_pressure;BME280_temperature;BME280_humidity;BME280_pressure;Samples;Min_cycle;Max_cycle;Signal;HPM_P1;HPM_P2
2021/07/02 00:02:27;;;;;;;23.93;12.13;;;15.70;99.90;;;;;;4381768;32;20279;-62
2021/07/02 00:04:54;;;;;;;24.50;13.00;;;15.70;99.90;;;;;;4380976;32;20181;-61
2021/07/02 00:07:21;;;;;;;23.40;12.50;;;15.70;99.90;;;;;;4376179;32;20473;-62
2021/07/02 00:09:51;;;;;;;19.73;12.67;;;15.70;99.90;;;;;;4385043;32;20183;-62
2021/07/02 00:12:18;;;;;;;18.93;12.20;;;15.60;99.90;;;;;;4384307;32;20160;-61
2021/07/02 00:14:44;;;;;;;21.80;11.73;;;15.60;99.90;;;;;;4383675;32;20152;-62
2021/07/02 00:17:11;;;;;;;26.60;11.60;;;15.50;99.90;;;;;;4378348;32;20184;-61
2021/07/02 00:19:38;;;;;;;22.33;12.50;;;15.50;99.90;;;;;;4381704;32;20495;-62
2021/07/02 00:22:07;;;;;;;19.63;11.33;;;15.50;99.90;;;;;;4379029;32;20180;-62
2021/07/02 00:24:34;;;;;;;19.00;12.43;;;15.50;99.90;;;;;;4386170;32;20242;-62
2021/07/02 00:27:02;;;;;;;22.07;10.93;;;15.50;99.90;;;;;;4389324;32;20179;-62
2021/07/02 00:29:29;;;;;;;32.17;12.50;;;15.50;99.90;;;;;;4381637;32;20562;-62
2021/07/02 00:31:59;;;;;;;22.03;12.20;;;15.40;99.90;;;;;;4383194;32;20168;-60
2021/07/02 00:34:31;;;;;;;21.07;12.07;;;15.40;99.90;;;;;;4386722;32;20172;-62
2021/07/02 00:37:00;;;;;;;22.07;12.23;;;15.30;99.90;;;;;;4381928;32;22083;-62
2021/07/02 00:39:29;;;;;;;21.23;11.17;;;15.30;99.90;;;;;;4386554;32;20491;-62
2021/07/02 00:42:01;;;;;;;19.67;11.43;;;15.30;99.90;;;;;;4381843;32;20153;-62
2021/07/02 00:44:39;;;;;;;19.77;11.37;;;15.30;99.90;;;;;;4377114;32;20190;-62
2021/07/02 00:47:06;;;;;;;19.13;11.57;;;15.30;99.90;;;;;;4382086;32;20171;-61
2021/07/02 00:49:34;;;;;;;23.83;11.50;;;15.30;99.90;;;;;;4384308;32;20225;-62
2021/07/02 00:52:01;;;;;;;18.47;12.20;;;15.30;99.90;;;;;;4384854;32;20194;-62
2021/07/02 00:54:31;;;;;;;18.93;11.37;;;15.20;99.90;;;;;;4388182;32;20160;-60
2021/07/02 00:57:01;;;;;;;16.73;11.10;;;15.20;99.90;;;;;;4392505;32;20148;-60
2021/07/02 00:59:36;;;;;;;20.37;12.30;;;15.20;99.90;;;;;;4380911;32;20175;-61
2021/07/02 01:02:06;;;;;;;22.60;12.80;;;15.20;99.90;;;;;;4384742;32;20227;-64
2021/07/02 01:04:32;;;;;;;22.07;12.53;;;15.30;99.90;;;;;;4380665;32;20141;-61
2021/07/02 01:07:01;;;;;;;24.43;11.10;;;15.30;99.90;;;;;;4379008;32;20525;-62
2021/07/02 01:09:28;;;;;;;24.10;13.27;;;15.30;99.90;;;;;;4385235;32;20156;-61
2021/07/02 01:11:55;;;;;;;24.93;12.20;;;15.30;99.90;;;;;;4384146;32;20248;-62
2021/07/02 01:14:22;;;;;;;19.27;11.97;;;15.30;99.90;;;;;;4381945;32;20180;-61
2021/07/02 01:16:49;;;;;;;18.53;12.10;;;15.30;99.90;;;;;;4384335;32;20198;-62
2021/07/02 01:19:18;;;;;;;20.73;10.97;;;15.30;99.90;;;;;;4380402;32;20168;-64
2021/07/02 01:21:46;;;;;;;18.17;11.13;;;15.40;99.90;;;;;;4376601;32;20184;-62
2021/07/02 01:24:16;;;;;;;21.37;11.93;;;15.30;99.90;;;;;;4379806;32;20156;-60
2021/07/02 01:26:43;;;;;;;23.50;12.20;;;15.30;99.90;;;;;;4376996;32;20148;-62
2021/07/02 01:29:10;;;;;;;19.00;11.87;;;15.30;99.90;;;;;;4388469;32;20565;-61
2021/07/02 01:31:38;;;;;;;29.30;12.80;;;15.40;99.90;;;;;;4377340;32;20160;-61
2021/07/02 01:34:05;;;;;;;19.83;11.73;;;15.40;99.90;;;;;;4382860;32;20195;-62
2021/07/02 01:36:32;;;;;;;22.47;12.77;;;15.40;99.90;;;;;;4378195;32;20207;-61
2021/07/02 01:39:03;;;;;;;26.63;14.63;;;15.40;99.90;;;;;;4378378;32;20211;-61
2021/07/02 01:41:30;;;;;;;22.80;12.23;;;15.40;99.90;;;;;;4384845;32;20149;-62
2021/07/02 01:44:00;;;;;;;18.03;12.30;;;15.40;99.90;;;;;;4382230;32;20493;-62
2021/07/02 01:46:30;;;;;;;19.53;11.90;;;15.40;99.90;;;;;;4389745;32;20682;-62
2021/07/02 01:49:00;;;;;;;17.27;11.10;;;15.40;99.90;;;;;;4389382;32;20157;-62
2021/07/02 01:51:27;;;;;;;24.73;12.30;;;15.40;99.90;;;;;;4383420;32;20190;-62
2021/07/02 01:53:54;;;;;;;18.03;12.30;;;15.40;99.90;;;;;;4382483;32;20210;-62
2021/07/02 01:56:23;;;;;;;24.13;13.97;;;15.40;99.90;;;;;;4392028;32;20445;-61
2021/07/02 01:58:50;;;;;;;22.53;12.80;;;15.40;99.90;;;;;;4384349;32;20156;-62
2021/07/02 02:01:17;;;;;;;19.80;12.43;;;15.40;99.90;;;;;;4385602;32;20167;-61
2021/07/02 02:03:44;;;;;;;27.00;14.20;;;15.40;99.90;;;;;;4376565;32;20184;-61
2021/07/02 02:06:11;;;;;;;21.23;12.33;;;15.30;99.90;;;;;;4378551;32;20160;-61
2021/07/02 02:08:38;;;;;;;26.10;13.83;;;15.30;99.90;;;;;;4378156;32;20152;-61
2021/07/02 02:11:05;;;;;;;22.00;12.47;;;15.30;99.90;;;;;;4384772;32;20574;-61
2021/07/02 02:13:33;;;;;;;23.00;13.43;;;15.30;99.90;;;;;;4379274;32;20164;-61
2021/07/02 02:16:03;;;;;;;24.77;12.57;;;15.30;99.90;;;;;;4377692;32;20199;-61
2021/07/02 02:18:29;;;;;;;20.90;13.40;;;15.30;99.90;;;;;;4388660;32;20198;-62
2021/07/02 02:20:56;;;;;;;22.23;12.73;;;15.30;99.90;;;;;;4378894;32;20175;-62
2021/07/02 02:23:23;;;;;;;21.97;13.33;;;15.20;99.90;;;;;;4376036;32;20171;-61
2021/07/02 02:25:51;;;;;;;21.37;13.23;;;15.30;99.90;;;;;;4383377;32;20178;-61
2021/07/02 02:28:18;;;;;;;20.67;13.43;;;15.30;99.90;;;;;;4376165;32;20590;-61
2021/07/02 02:30:46;;;;;;;21.90;13.60;;;15.30;99.90;;;;;;4387609;32;20205;-61
2021/07/02 02:33:13;;;;;;;24.53;13.13;;;15.30;99.90;;;;;;4381695;32;20152;-62
2021/07/02 02:35:40;;;;;;;26.10;12.47;;;15.30;99.90;;;;;;4333408;32;1696260;-62
2021/07/02 02:38:07;;;;;;;21.10;13.87;;;15.30;99.90;;;;;;4388964;32;20560;-62
2021/07/02 02:40:34;;;;;;;22.40;13.30;;;15.30;99.90;;;;;;4382432;32;20538;-61
2021/07/02 02:43:03;;;;;;;20.13;12.70;;;15.30;99.90;;;;;;4376267;32;20167;-61
2021/07/02 02:45:30;;;;;;;22.77;12.87;;;15.40;99.90;;;;;;4388074;32;20148;-62
2021/07/02 02:47:58;;;;;;;22.00;13.13;;;15.30;99.90;;;;;;4390244;32;20159;-62
2021/07/02 02:50:25;;;;;;;24.67;14.70;;;15.30;99.90;;;;;;4378256;32;20198;-61
2021/07/02 02:52:52;;;;;;;23.60;14.63;;;15.30;99.90;;;;;;4375522;32;20167;-62
2021/07/02 02:55:19;;;;;;;23.03;14.33;;;15.30;99.90;;;;;;4379598;32;20148;-63
2021/07/02 02:57:46;;;;;;;21.20;15.37;;;15.30;99.90;;;;;;4375804;32;20195;-61
2021/07/02 03:00:14;;;;;;;22.67;14.87;;;15.20;99.90;;;;;;4388387;32;20587;-61
2021/07/02 03:02:41;;;;;;;29.17;14.43;;;15.20;99.90;;;;;;4375206;32;20147;-61
2021/07/02 03:05:10;;;;;;;25.10;14.77;;;15.20;99.90;;;;;;4376398;32;20159;-60
2021/07/02 03:07:38;;;;;;;24.93;14.27;;;15.20;99.90;;;;;;4384534;32;20476;-62
2021/07/02 03:10:06;;;;;;;22.03;13.77;;;15.20;99.90;;;;;;4384392;32;20171;-61
2021/07/02 03:12:35;;;;;;;25.87;14.37;;;15.10;99.90;;;;;;4387703;32;20148;-62
2021/07/02 03:15:02;;;;;;;23.90;14.47;;;15.10;99.90;;;;;;4386007;32;20153;-62
2021/07/02 03:17:29;;;;;;;28.13;14.53;;;15.20;99.90;;;;;;4380324;32;20148;-62
2021/07/02 03:19:56;;;;;;;24.27;15.57;;;15.20;99.90;;;;;;4378118;32;20181;-63
2021/07/02 03:22:24;;;;;;;25.90;14.73;;;15.20;99.90;;;;;;4377973;32;20219;-60
2021/07/02 03:24:55;;;;;;;24.00;13.77;;;15.20;99.90;;;;;;4377337;32;20195;-60
2021/07/02 03:27:22;;;;;;;21.90;14.63;;;15.20;99.90;;;;;;4378335;32;20218;-61
2021/07/02 03:29:51;;;;;;;23.97;14.67;;;15.20;99.90;;;;;;4386171;32;20153;-62
2021/07/02 03:32:19;;;;;;;24.07;14.50;;;15.20;99.90;;;;;;4379348;32;20437;-62
2021/07/02 03:34:47;;;;;;;25.83;14.67;;;15.20;99.90;;;;;;4384632;32;20180;-61
2021/07/02 03:37:16;;;;;;;29.50;15.70;;;15.20;99.90;;;;;;4378717;32;20550;-61
2021/07/02 03:39:46;;;;;;;20.40;14.00;;;15.20;99.90;;;;;;4377995;32;20152;-61
2021/07/02 03:42:16;;;;;;;25.73;13.60;;;15.20;99.90;;;;;;4385753;32;20166;-61
2021/07/02 03:44:42;;;;;;;26.67;14.80;;;15.20;99.90;;;;;;4384835;32;20153;-62
2021/07/02 03:47:12;;;;;;;25.00;14.03;;;15.20;99.90;;;;;;4377676;32;20153;-61
2021/07/02 03:49:39;;;;;;;21.87;13.73;;;15.20;99.90;;;;;;4376928;32;20149;-59
2021/07/02 03:52:07;;;;;;;24.53;14.23;;;15.30;99.90;;;;;;4382950;32;20262;-61
2021/07/02 03:54:35;;;;;;;30.20;14.83;;;15.30;99.90;;;;;;4379846;32;20496;-60
2021/07/02 03:57:11;;;;;;;23.63;14.10;;;15.30;99.90;;;;;;4377519;32;20140;-61
2021/07/02 03:59:46;;;;;;;22.93;13.20;;;15.30;99.90;;;;;;4381396;32;20205;-60
2021/07/02 04:02:13;;;;;;;20.93;13.70;;;15.30;99.90;;;;;;4390384;32;20140;-61
2021/07/02 04:04:41;;;;;;;21.37;12.90;;;15.30;99.90;;;;;;4388790;32;20144;-60
2021/07/02 04:07:10;;;;;;;24.27;14.27;;;15.40;99.90;;;;;;4388871;32;20149;-62
2021/07/02 04:09:38;;;;;;;24.77;13.70;;;15.40;99.90;;;;;;4386430;32;20171;-60
2021/07/02 04:12:07;;;;;;;20.83;13.10;;;15.40;99.90;;;;;;4384510;32;20160;-61
2021/07/02 04:14:35;;;;;;;25.27;13.47;;;15.40;99.90;;;;;;4377603;32;20163;-61
2021/07/02 04:17:04;;;;;;;18.53;12.47;;;15.50;99.90;;;;;;4389159;32;20202;-61
2021/07/02 04:19:31;;;;;;;21.43;13.43;;;15.50;99.90;;;;;;4392491;32;20207;-62
2021/07/02 04:21:58;;;;;;;25.47;12.30;;;15.50;99.90;;;;;;4382574;32;20140;-61
2021/07/02 04:24:27;;;;;;;21.27;12.43;;;15.50;99.90;;;;;;4384414;32;20152;-60
2021/07/02 04:26:54;;;;;;;22.23;12.50;;;15.50;99.90;;;;;;4392224;32;20140;-60
2021/07/02 04:29:22;;;;;;;23.60;12.77;;;15.50;99.90;;;;;;4385528;32;20166;-62
2021/07/02 04:31:49;;;;;;;25.57;12.67;;;15.60;99.90;;;;;;4376815;32;20429;-61
2021/07/02 04:34:16;;;;;;;18.93;11.87;;;15.60;99.90;;;;;;4380650;32;20199;-61
2021/07/02 04:36:43;;;;;;;20.77;11.90;;;15.60;99.90;;;;;;4376274;32;20597;-62
2021/07/02 04:39:10;;;;;;;28.87;14.23;;;15.60;99.90;;;;;;4378500;32;20547;-63
2021/07/02 04:41:38;;;;;;;23.83;12.53;;;15.60;99.90;;;;;;4377320;32;20167;-62
2021/07/02 04:44:05;;;;;;;19.00;12.27;;;15.60;99.90;;;;;;4381819;32;20145;-61
2021/07/02 04:46:33;;;;;;;25.33;14.17;;;15.60;99.90;;;;;;4386841;32;20151;-61
2021/07/02 04:49:00;;;;;;;22.50;12.77;;;15.60;99.90;;;;;;4384144;32;20164;-63
2021/07/02 04:51:28;;;;;;;22.43;13.33;;;15.60;99.90;;;;;;4384236;32;20183;-62
2021/07/02 04:53:55;;;;;;;21.67;13.20;;;15.60;99.90;;;;;;4384781;32;20152;-60
2021/07/02 04:56:26;;;;;;;26.47;14.33;;;15.70;99.90;;;;;;4377685;32;20160;-60
2021/07/02 04:58:55;;;;;;;25.73;13.83;;;15.70;99.90;;;;;;4389988;32;20186;-60
2021/07/02 05:01:23;;;;;;;20.40;12.57;;;15.80;99.90;;;;;;4385887;32;20140;-62
2021/07/02 05:03:54;;;;;;;21.57;13.57;;;15.80;99.90;;;;;;4378287;32;20219;-61
2021/07/02 05:06:21;;;;;;;21.07;14.23;;;15.70;99.90;;;;;;4386965;32;20153;-60
2021/07/02 05:08:47;;;;;;;26.73;14.37;;;15.70;99.90;;;;;;4379815;32;20204;-62
2021/07/02 05:11:15;;;;;;;24.07;13.53;;;15.60;99.90;;;;;;4389640;32;20465;-62
2021/07/02 05:13:42;;;;;;;18.67;13.03;;;15.60;99.90;;;;;;4388149;32;20210;-62
2021/07/02 05:16:09;;;;;;;21.00;13.57;;;15.80;99.90;;;;;;4385903;32;20149;-62
2021/07/02 05:18:44;;;;;;;20.17;12.90;;;15.90;99.90;;;;;;4386163;32;20152;-62
2021/07/02 05:21:12;;;;;;;21.27;12.13;;;16.10;99.90;;;;;;4383647;32;20226;-62
2021/07/02 05:23:39;;;;;;;24.97;14.30;;;16.20;99.90;;;;;;4385744;32;20611;-63
2021/07/02 05:26:06;;;;;;;22.10;13.47;;;16.30;99.90;;;;;;4380527;32;20159;-62
2021/07/02 05:28:35;;;;;;;20.93;13.93;;;16.50;99.90;;;;;;4382626;32;20163;-62
2021/07/02 05:31:02;;;;;;;21.40;13.07;;;16.50;99.90;;;;;;4383628;32;20152;-61
2021/07/02 05:33:29;;;;;;;19.97;13.07;;;16.60;99.90;;;;;;4382722;32;20156;-63
2021/07/02 05:35:58;;;;;;;19.80;12.97;;;16.50;99.90;;;;;;4382536;32;20165;-60
2021/07/02 05:38:26;;;;;;;24.10;13.27;;;16.50;99.90;;;;;;4380319;32;20222;-61
2021/07/02 05:40:55;;;;;;;20.20;13.53;;;16.50;99.90;;;;;;4379477;32;20148;-62
2021/07/02 05:43:22;;;;;;;23.80;13.23;;;16.40;99.90;;;;;;4381595;32;20526;-62
2021/07/02 05:45:49;;;;;;;21.70;13.23;;;16.30;99.90;;;;;;4381384;32;20200;-62
2021/07/02 05:48:21;;;;;;;22.87;13.47;;;16.20;99.90;;;;;;4386014;32;20145;-61
2021/07/02 05:50:58;;;;;;;23.97;13.27;;;16.10;99.90;;;;;;4381040;32;20199;-61
2021/07/02 05:53:29;;;;;;;17.33;12.87;;;16.10;99.90;;;;;;4382420;32;20168;-63
2021/07/02 05:55:56;;;;;;;22.87;12.30;;;16.10;99.90;;;;;;4382513;32;20183;-62
2021/07/02 05:58:23;;;;;;;23.90;14.40;;;16.00;99.90;;;;;;4382577;32;20167;-62
2021/07/02 06:00:50;;;;;;;23.93;13.77;;;16.00;99.90;;;;;;4381552;32;20229;-65
2021/07/02 06:03:21;;;;;;;18.90;12.83;;;16.00;99.90;;;;;;4386012;32;20148;-65
2021/07/02 06:05:48;;;;;;;24.67;14.33;;;16.00;99.90;;;;;;4383764;32;20183;-63
2021/07/02 06:08:16;;;;;;;24.43;14.43;;;15.90;99.90;;;;;;4379586;32;20132;-62
2021/07/02 06:10:44;;;;;;;22.93;14.20;;;16.00;99.90;;;;;;4375967;32;20147;-62
2021/07/02 06:13:12;;;;;;;22.33;13.43;;;16.00;99.90;;;;;;4383265;32;20144;-62
2021/07/02 06:15:41;;;;;;;24.13;14.20;;;16.10;99.90;;;;;;4382792;32;20140;-62
2021/07/02 06:18:11;;;;;;;26.23;14.37;;;16.10;99.90;;;;;;4379421;32;20190;-62
2021/07/02 06:20:38;;;;;;;25.37;14.13;;;16.20;99.90;;;;;;4381780;32;20145;-62
2021/07/02 06:23:08;;;;;;;20.27;13.47;;;16.30;99.90;;;;;;4384006;32;20171;-61
2021/07/02 06:25:35;;;;;;;22.10;13.53;;;16.30;99.90;;;;;;4384703;32;20235;-60
2021/07/02 06:28:04;;;;;;;24.03;14.70;;;16.40;99.90;;;;;;4382761;32;20610;-62
2021/07/02 06:30:34;;;;;;;24.07;15.30;;;16.50;99.90;;;;;;4379425;32;20194;-62
2021/07/02 06:33:03;;;;;;;22.73;14.67;;;16.50;99.90;;;;;;4380697;32;20167;-63
2021/07/02 06:35:34;;;;;;;25.57;15.50;;;16.50;99.90;;;;;;4380960;32;20164;-62
2021/07/02 06:38:01;;;;;;;25.13;14.87;;;16.70;99.90;;;;;;4380191;32;20209;-62
2021/07/02 06:40:32;;;;;;;25.53;15.03;;;17.00;99.90;;;;;;4383270;32;20626;-62
2021/07/02 06:42:58;;;;;;;28.93;16.77;;;17.20;99.90;;;;;;4382546;32;20241;-63
2021/07/02 06:45:29;;;;;;;21.40;13.43;;;17.30;99.90;;;;;;4377261;32;20148;-63
2021/07/02 06:48:06;;;;;;;25.67;15.23;;;17.40;99.90;;;;;;4385889;32;20569;-62
2021/07/02 06:50:34;;;;;;;25.70;15.40;;;17.50;99.90;;;;;;4386431;32;20152;-61
2021/07/02 06:53:05;;;;;;;21.63;13.87;;;17.50;99.90;;;;;;4384920;32;20548;-61
2021/07/02 06:55:35;;;;;;;27.00;15.37;;;17.70;99.90;;;;;;4385821;32;20148;-62
2021/07/02 06:58:03;;;;;;;22.50;14.30;;;17.80;99.90;;;;;;4385264;32;20177;-62
2021/07/02 07:00:37;;;;;;;21.87;14.73;;;17.80;99.90;;;;;;4386936;32;20209;-61
2021/07/02 07:03:07;;;;;;;22.40;14.87;;;17.90;99.90;;;;;;4386965;32;20237;-61
2021/07/02 07:05:38;;;;;;;22.50;14.50;;;17.90;99.90;;;;;;4384356;32;20152;-61
2021/07/02 07:08:09;;;;;;;21.17;14.80;;;18.00;99.90;;;;;;4384226;32;20659;-60
2021/07/02 07:10:39;;;;;;;27.30;16.03;;;17.90;99.90;;;;;;4389709;32;20151;-62
2021/07/02 07:13:15;;;;;;;23.57;16.20;;;17.80;99.90;;;;;;4383355;32;20194;-62
2021/07/02 07:15:45;;;;;;;23.97;15.17;;;17.70;99.90;;;;;;4385310;32;20190;-60
2021/07/02 07:18:16;;;;;;;24.57;15.73;;;17.60;99.90;;;;;;4385078;32;20644;-62
2021/07/02 07:20:43;;;;;;;21.93;15.90;;;17.60;99.90;;;;;;4382694;32;20175;-63
2021/07/02 07:23:13;;;;;;;23.53;14.67;;;17.50;99.90;;;;;;4385038;32;20168;-63
2021/07/02 07:25:42;;;;;;;23.60;15.00;;;17.50;99.90;;;;;;4381858;32;20182;-62
2021/07/02 07:28:14;;;;;;;23.33;14.83;;;17.50;99.90;;;;;;4384668;32;20507;-63
2021/07/02 07:30:42;;;;;;;18.60;14.03;;;17.60;99.90;;;;;;4386852;32;20151;-64
2021/07/02 07:33:09;;;;;;;22.97;14.33;;;17.70;99.90;;;;;;4382949;32;20202;-63
2021/07/02 07:35:38;;;;;;;19.40;13.80;;;17.70;99.90;;;;;;4384026;32;20183;-63
2021/07/02 07:38:05;;;;;;;20.50;14.57;;;17.60;99.90;;;;;;4385012;32;20215;-63
2021/07/02 07:40:32;;;;;;;22.00;14.20;;;17.60;99.90;;;;;;4382900;32;20588;-63
2021/07/02 07:43:00;;;;;;;20.40;15.30;;;17.60;99.90;;;;;;4383308;32;20174;-63
2021/07/02 07:45:30;;;;;;;23.63;14.60;;;17.70;99.90;;;;;;4383191;32;20153;-62
2021/07/02 07:48:00;;;;;;;23.67;15.43;;;17.60;99.90;;;;;;4385319;32;20179;-62
2021/07/02 07:50:40;;;;;;;22.40;16.13;;;17.60;99.90;;;;;;4384700;32;20175;-63
2021/07/02 07:53:09;;;;;;;23.13;15.73;;;17.30;99.90;;;;;;4382898;32;20163;-63
2021/07/02 07:55:36;;;;;;;25.67;16.47;;;17.10;99.90;;;;;;4384737;32;20171;-63
2021/07/02 07:58:05;;;;;;;27.43;16.43;;;17.10;99.90;;;;;;4384247;32;20153;-62
2021/07/02 08:00:34;;;;;;;25.03;17.13;;;17.00;99.90;;;;;;4383636;32;20152;-63
2021/07/02 08:03:04;;;;;;;28.27;17.40;;;16.90;99.90;;;;;;4384237;32;20165;-62
2021/07/02 08:05:34;;;;;;;23.27;16.97;;;16.80;99.90;;;;;;4385405;32;20243;-62
2021/07/02 08:08:00;;;;;;;23.57;17.60;;;16.90;99.90;;;;;;4382549;32;20169;-63
2021/07/02 08:10:30;;;;;;;27.37;17.87;;;16.90;99.90;;;;;;4382656;32;20199;-63
2021/07/02 08:13:02;;;;;;;28.23;20.00;;;16.80;99.90;;;;;;4382111;32;20153;-63
2021/07/02 08:15:31;;;;;;;26.57;18.17;;;16.70;99.90;;;;;;4381627;32;20670;-63
2021/07/02 08:17:58;;;;;;;26.60;19.03;;;16.60;99.90;;;;;;4385373;32;20175;-62
2021/07/02 08:20:27;;;;;;;29.87;19.07;;;16.50;99.90;;;;;;4386870;32;20529;-62
2021/07/02 08:22:54;;;;;;;30.83;21.47;;;16.40;99.90;;;;;;4382652;32;20163;-61
2021/07/02 08:25:21;;;;;;;30.77;20.13;;;16.30;99.90;;;;;;4383678;32;20129;-60
2021/07/02 08:30:38;;;;;;;31.80;20.37;;;16.40;99.90;;;;;;4386536;32;20235;-62
2021/07/02 08:33:07;;;;;;;32.50;21.50;;;16.40;99.90;;;;;;4383779;32;20290;-61
2021/07/02 08:35:37;;;;;;;31.13;21.40;;;16.40;99.90;;;;;;4383535;32;20165;-63
2021/07/02 08:38:07;;;;;;;32.67;21.37;;;16.50;99.90;;;;;;4382721;32;20148;-62
2021/07/02 08:40:34;;;;;;;36.23;22.40;;;16.60;99.90;;;;;;4383144;32;20610;-61
2021/07/02 08:43:01;;;;;;;32.77;20.37;;;16.70;99.90;;;;;;4381805;32;20144;-62
2021/07/02 08:45:31;;;;;;;28.83;20.33;;;16.80;99.90;;;;;;4380300;32;20156;-63
2021/07/02 08:48:06;;;;;;;28.50;19.17;;;16.90;99.90;;;;;;4383152;32;20222;-63
2021/07/02 08:50:35;;;;;;;31.70;19.80;;;17.00;99.90;;;;;;4381980;32;20682;-61
2021/07/02 08:53:05;;;;;;;26.67;17.33;;;17.10;99.90;;;;;;4380455;32;20609;-63
2021/07/02 08:55:36;;;;;;;26.27;18.17;;;17.20;99.90;;;;;;4382067;32;20586;-63
2021/07/02 08:58:06;;;;;;;26.47;18.17;;;17.20;99.90;;;;;;4382800;32;20152;-63
2021/07/02 09:00:38;;;;;;;27.93;19.13;;;17.20;99.90;;;;;;4382185;32;20145;-63
2021/07/02 09:03:25;;;;;;;25.43;18.40;;;17.10;99.90;;;;;;4379912;32;20159;-63
2021/07/02 09:05:52;;;;;;;27.73;17.60;;;17.20;99.90;;;;;;4381311;32;20175;-62
2021/07/02 09:08:23;;;;;;;25.10;18.20;;;17.10;99.90;;;;;;4387415;32;20162;-63
2021/07/02 09:10:52;;;;;;;27.97;18.53;;;17.20;99.90;;;;;;4379193;32;20187;-63
2021/07/02 09:13:19;;;;;;;26.73;17.93;;;17.20;99.90;;;;;;4381958;32;20152;-62
2021/07/02 09:15:50;;;;;;;25.70;18.50;;;17.30;99.90;;;;;;4382705;32;20228;-63
2021/07/02 09:18:20;;;;;;;25.17;17.03;;;17.20;99.90;;;;;;4381897;32;20496;-64
2021/07/02 09:20:50;;;;;;;27.87;18.43;;;17.20;99.90;;;;;;4381970;32;20515;-61
2021/07/02 09:23:19;;;;;;;27.73;17.17;;;17.10;99.90;;;;;;4384481;32;20215;-61
2021/07/02 09:25:54;;;;;;;25.70;17.50;;;17.00;99.90;;;;;;4381698;32;20179;-62
2021/07/02 09:28:25;;;;;;;22.80;16.33;;;17.00;99.90;;;;;;4384341;32;20152;-64
2021/07/02 09:30:58;;;;;;;24.63;16.73;;;17.00;99.90;;;;;;4383109;32;20156;-64
2021/07/02 09:33:31;;;;;;;23.57;16.33;;;17.00;99.90;;;;;;4382150;32;20573;-65
2021/07/02 09:36:01;;;;;;;26.03;17.83;;;17.00;99.90;;;;;;4390071;32;20178;-65
2021/07/02 09:38:36;;;;;;;25.70;17.83;;;17.00;99.90;;;;;;4383002;32;20216;-63
2021/07/02 09:41:06;;;;;;;24.93;16.33;;;16.90;99.90;;;;;;4376017;32;20158;-64
2021/07/02 09:43:32;;;;;;;27.37;18.03;;;16.70;99.90;;;;;;4378537;32;20228;-64
2021/07/02 09:46:02;;;;;;;29.87;18.40;;;16.70;99.90;;;;;;4392649;32;20163;-63
2021/07/02 09:48:30;;;;;;;25.80;18.93;;;16.80;99.90;;;;;;4384620;32;20583;-64
2021/07/02 09:51:02;;;;;;;28.83;17.27;;;16.80;99.90;;;;;;4381376;32;20148;-63
2021/07/02 09:53:35;;;;;;;31.13;18.77;;;16.80;99.90;;;;;;4385032;32;20144;-64
2021/07/02 09:56:07;;;;;;;29.60;19.57;;;16.90;99.90;;;;;;4390627;32;20156;-63
2021/07/02 09:58:36;;;;;;;32.47;21.40;;;16.80;99.90;;;;;;4390709;32;20156;-64
2021/07/02 10:01:10;;;;;;;29.03;19.80;;;16.80;99.90;;;;;;4390803;32;20144;-64
2021/07/02 10:03:41;;;;;;;29.43;19.33;;;16.80;99.90;;;;;;4390585;32;20182;-65
2021/07/02 10:06:14;;;;;;;32.40;20.77;;;16.90;99.90;;;;;;4403200;32;20147;-64
2021/07/02 10:08:44;;;;;;;28.70;20.47;;;16.90;99.90;;;;;;4406824;32;20183;-64
2021/07/02 10:11:18;;;;;;;32.90;21.87;;;17.10;99.90;;;;;;4405702;32;20136;-65
2021/07/02 10:13:48;;;;;;;36.67;24.30;;;17.20;99.90;;;;;;4407438;32;20560;-65
2021/07/02 10:16:16;;;;;;;39.53;24.40;;;17.20;99.90;;;;;;4406173;32;20143;-65
2021/07/02 10:18:47;;;;;;;37.80;24.40;;;17.30;99.90;;;;;;4405561;32;20480;-65
2021/07/02 10:21:15;;;;;;;36.87;23.43;;;17.40;99.90;;;;;;4406095;32;20148;-65
2021/07/02 10:23:45;;;;;;;33.73;21.23;;;17.50;99.90;;;;;;4405077;32;20135;-65
2021/07/02 10:26:14;;;;;;;31.67;20.67;;;17.70;99.90;;;;;;4403827;32;20203;-64
2021/07/02 10:28:43;;;;;;;32.97;21.67;;;17.80;99.90;;;;;;4390368;32;20163;-64
2021/07/02 10:31:13;;;;;;;39.03;25.57;;;17.70;99.90;;;;;;4390604;32;20187;-63
2021/07/02 10:33:46;;;;;;;31.87;21.80;;;17.80;99.90;;;;;;4391799;32;20627;-64
2021/07/02 10:36:17;;;;;;;31.47;19.83;;;17.80;99.90;;;;;;4389966;32;20160;-65
2021/07/02 10:38:46;;;;;;;34.40;22.57;;;17.90;99.90;;;;;;4388287;32;20144;-64
2021/07/02 10:41:16;;;;;;;35.47;21.20;;;18.10;99.90;;;;;;4375458;32;20135;-63
2021/07/02 10:44:07;;;;;;;32.93;20.63;;;18.30;99.90;;;;;;4384996;32;20152;-63
2021/07/02 10:46:35;;;;;;;30.80;20.70;;;18.50;99.90;;;;;;4405796;32;20543;-62
2021/07/02 10:49:06;;;;;;;30.27;20.87;;;18.70;99.90;;;;;;4405406;32;20140;-65
2021/07/02 10:51:48;;;;;;;26.73;19.60;;;19.00;99.90;;;;;;4405576;32;20144;-64
2021/07/02 10:54:38;;;;;;;27.60;19.30;;;19.30;99.90;;;;;;4406715;32;20162;-65
2021/07/02 10:57:14;;;;;;;26.03;17.90;;;19.80;99.90;;;;;;4405073;32;20144;-65
2021/07/02 11:00:08;;;;;;;26.03;18.17;;;20.40;99.90;;;;;;4384289;32;20194;-63
2021/07/02 11:02:38;;;;;;;25.93;18.10;;;20.90;99.90;;;;;;4370954;32;20198;-63
2021/07/02 11:05:34;;;;;;;25.20;16.83;;;21.40;99.90;;;;;;4374700;32;20167;-62
2021/07/02 11:08:01;;;;;;;19.73;15.10;;;21.70;99.90;;;;;;4330135;33;20174;-63
2021/07/02 11:11:01;;;;;;;23.63;16.43;;;22.20;99.90;;;;;;4334035;33;20175;-62
2021/07/02 11:14:10;;;;;;;23.07;15.00;;;22.30;99.90;;;;;;4338514;33;20153;-63
2021/07/02 11:17:15;;;;;;;19.10;14.40;;;22.60;99.90;;;;;;4329144;33;20157;-62
2021/07/02 11:19:44;;;;;;;18.57;12.47;;;23.10;99.90;;;;;;4342287;33;20304;-62
2021/07/02 11:22:28;;;;;;;16.80;12.70;;;23.40;99.90;;;;;;4338875;33;20328;-62
2021/07/02 11:25:02;;;;;;;20.50;13.77;;;23.70;99.90;;;;;;4328400;33;20577;-63
2021/07/02 11:27:46;;;;;;;20.47;14.07;;;23.80;99.90;;;;;;4328815;33;20157;-63
2021/07/02 11:30:34;;;;;;;17.00;12.97;;;23.80;99.90;;;;;;4329313;33;20150;-62
2021/07/02 11:33:19;;;;;;;16.70;13.73;;;23.90;99.90;;;;;;4341385;32;20581;-61
2021/07/02 11:35:59;;;;;;;18.60;13.87;;;23.80;99.90;;;;;;4392557;32;20672;-62
2021/07/02 11:38:28;;;;;;;18.70;13.53;;;23.70;99.90;;;;;;4392749;32;20136;-63
2021/07/02 11:40:57;;;;;;;18.37;13.43;;;23.60;99.90;;;;;;4394455;32;20156;-62
2021/07/02 11:43:32;;;;;;;16.47;11.93;;;23.50;99.90;;;;;;4392658;32;20159;-64
2021/07/02 11:46:04;;;;;;;19.90;13.97;;;23.30;99.90;;;;;;4379933;32;20197;-63
2021/07/02 11:48:33;;;;;;;18.27;13.00;;;22.90;99.90;;;;;;4392695;32;20157;-63
2021/07/02 11:51:08;;;;;;;17.37;12.00;;;22.60;99.90;;;;;;4392560;32;20171;-64
2021/07/02 11:53:36;;;;;;;17.23;14.07;;;22.50;99.90;;;;;;4393036;32;20559;-63
2021/07/02 11:56:17;;;;;;;16.10;12.67;;;22.60;99.90;;;;;;4392412;32;20140;-64
2021/07/02 11:58:48;;;;;;;17.00;12.33;;;23.10;99.90;;;;;;4387427;32;20133;-66
2021/07/02 12:01:18;;;;;;;17.73;12.77;;;23.40;99.90;;;;;;4383694;32;20148;-63
2021/07/02 12:04:00;;;;;;;15.50;12.37;;;23.20;99.90;;;;;;4393110;32;20894;-65
2021/07/02 12:06:31;;;;;;;18.10;11.87;;;23.20;99.90;;;;;;4388057;32;20211;-65
2021/07/02 12:09:07;;;;;;;19.67;13.33;;;23.10;99.90;;;;;;4390582;32;20152;-62
2021/07/02 12:11:37;;;;;;;17.30;12.27;;;22.70;99.90;;;;;;4389400;32;20174;-63
2021/07/02 12:14:06;;;;;;;17.60;13.33;;;22.50;99.90;;;;;;4392328;32;20212;-62
2021/07/02 12:16:37;;;;;;;15.90;12.27;;;22.30;99.90;;;;;;4391212;32;20166;-64
2021/07/02 12:19:11;;;;;;;18.73;13.03;;;22.30;99.90;;;;;;4388743;32;20148;-62
2021/07/02 12:21:46;;;;;;;19.07;13.13;;;21.70;99.90;;;;;;4376883;32;20153;-63
2021/07/02 12:24:16;;;;;;;15.20;10.80;;;21.40;99.90;;;;;;4383129;32;20227;-63
2021/07/02 12:27:00;;;;;;;14.57;11.23;;;21.30;99.90;;;;;;4392876;32;20155;-63
2021/07/02 12:29:33;;;;;;;20.23;12.90;;;21.40;99.90;;;;;;4387487;32;20239;-63
2021/07/02 12:32:05;;;;;;;22.37;12.87;;;21.90;99.90;;;;;;4379303;32;20172;-64
2021/07/02 12:34:42;;;;;;;18.17;12.70;;;22.70;99.90;;;;;;4384306;32;20221;-64
2021/07/02 12:37:11;;;;;;;17.77;12.63;;;23.50;99.90;;;;;;4384168;32;20220;-65
2021/07/02 12:39:47;;;;;;;15.50;11.13;;;24.00;99.90;;;;;;4376856;32;20141;-65
2021/07/02 12:42:15;;;;;;;17.37;12.93;;;23.90;99.90;;;;;;4381850;32;20637;-65
2021/07/02 12:44:48;;;;;;;19.57;13.97;;;22.90;99.90;;;;;;4387467;32;21721;-64